sensor_id;sensor_type;location;lat;lon;timestamp;P1;durP1;ratioP1;P2;durP2;ratioP2
41946;SDS011;27638;42.184;24.848;2023-05-07T00:00:04;8.68;;;5.60;;
41946;SDS011;27638;42.184;24.848;2023-05-07T00:02:33;7.65;;;5.57;;
41946;SDS011;27638;42.184;24.848;2023-05-07T00:04:59;7.72;;;5.72;;
41946;SDS011;27638;42.184;24.848;2023-05-07T00:07:24;8.48;;;5.80;;
41946;SDS011;27638;42.184;24.848;2023-05-07T00:09:50;9.20;;;5.70;;
41946;SDS011;27638;42.184;24.848;2023-05-07T00:12:15;10.50;;;5.93;;
41946;SDS011;27638;42.184;24.848;2023-05-07T00:14:40;6.82;;;5.20;;
41946;SDS011;27638;42.184;24.848;2023-05-07T00:17:06;6.07;;;5.05;;
41946;SDS011;27638;42.184;24.848;2023-05-07T00:19:32;7.93;;;5.22;;
41946;SDS011;27638;42.184;24.848;2023-05-07T00:21:57;8.02;;;5.00;;
41946;SDS011;27638;42.184;24.848;2023-05-07T00:24:23;8.60;;;5.10;;
41946;SDS011;27638;42.184;24.848;2023-05-07T00:26:49;7.03;;;5.25;;
41946;SDS011;27638;42.184;24.848;2023-05-07T00:29:15;6.70;;;5.10;;
41946;SDS011;27638;42.184;24.848;2023-05-07T00:31:40;8.20;;;5.05;;
41946;SDS011;27638;42.184;24.848;2023-05-07T00:34:05;7.50;;;4.65;;
41946;SDS011;27638;42.184;24.848;2023-05-07T00:36:31;8.38;;;5.88;;
41946;SDS011;27638;42.184;24.848;2023-05-07T00:38:57;5.38;;;4.80;;
41946;SDS011;27638;42.184;24.848;2023-05-07T00:41:25;7.63;;;5.88;;
41946;SDS011;27638;42.184;24.848;2023-05-07T00:43:51;8.90;;;6.38;;
41946;SDS011;27638;42.184;24.848;2023-05-07T00:46:20;8.20;;;5.97;;
41946;SDS011;27638;42.184;24.848;2023-05-07T00:48:45;9.32;;;6.88;;
41946;SDS011;27638;42.184;24.848;2023-05-07T00:51:11;13.63;;;8.25;;
41946;SDS011;27638;42.184;24.848;2023-05-07T00:53:37;16.00;;;10.48;;
41946;SDS011;27638;42.184;24.848;2023-05-07T00:56:04;16.77;;;11.32;;
41946;SDS011;27638;42.184;24.848;2023-05-07T00:58:31;18.67;;;11.85;;
41946;SDS011;27638;42.184;24.848;2023-05-07T01:00:57;15.85;;;10.90;;
41946;SDS011;27638;42.184;24.848;2023-05-07T01:03:23;15.57;;;10.52;;
41946;SDS011;27638;42.184;24.848;2023-05-07T01:05:48;13.48;;;9.40;;
41946;SDS011;27638;42.184;24.848;2023-05-07T01:08:15;12.27;;;8.13;;
41946;SDS011;27638;42.184;24.848;2023-05-07T01:10:42;10.38;;;7.28;;
41946;SDS011;27638;42.184;24.848;2023-05-07T01:13:11;9.48;;;7.13;;
41946;SDS011;27638;42.184;24.848;2023-05-07T01:15:37;8.85;;;6.32;;
41946;SDS011;27638;42.184;24.848;2023-05-07T01:18:03;6.97;;;6.18;;
41946;SDS011;27638;42.184;24.848;2023-05-07T01:20:29;8.73;;;5.97;;
41946;SDS011;27638;42.184;24.848;2023-05-07T01:22:55;7.20;;;6.47;;
41946;SDS011;27638;42.184;24.848;2023-05-07T01:25:22;8.88;;;6.40;;
41946;SDS011;27638;42.184;24.848;2023-05-07T01:27:48;7.72;;;6.30;;
41946;SDS011;27638;42.184;24.848;2023-05-07T01:30:14;11.32;;;7.47;;
41946;SDS011;27638;42.184;24.848;2023-05-07T01:35:27;7.45;;;5.90;;
41946;SDS011;27638;42.184;24.848;2023-05-07T01:37:55;8.50;;;6.10;;
41946;SDS011;27638;42.184;24.848;2023-05-07T01:40:21;8.10;;;6.47;;
41946;SDS011;27638;42.184;24.848;2023-05-07T01:42:47;9.32;;;6.32;;
41946;SDS011;27638;42.184;24.848;2023-05-07T01:45:13;8.70;;;6.13;;
41946;SDS011;27638;42.184;24.848;2023-05-07T01:47:39;7.70;;;6.43;;
41946;SDS011;27638;42.184;24.848;2023-05-07T01:50:05;7.32;;;5.53;;
41946;SDS011;27638;42.184;24.848;2023-05-07T01:52:32;7.07;;;5.85;;
41946;SDS011;27638;42.184;24.848;2023-05-07T01:54:59;7.68;;;5.70;;
41946;SDS011;27638;42.184;24.848;2023-05-07T01:57:24;7.75;;;5.72;;
41946;SDS011;27638;42.184;24.848;2023-05-07T01:59:50;7.38;;;6.28;;
41946;SDS011;27638;42.184;24.848;2023-05-07T02:02:15;7.72;;;5.93;;
41946;SDS011;27638;42.184;24.848;2023-05-07T02:04:41;8.30;;;7.20;;
41946;SDS011;27638;42.184;24.848;2023-05-07T02:07:06;7.88;;;6.50;;
41946;SDS011;27638;42.184;24.848;2023-05-07T02:09:31;7.60;;;6.10;;
41946;SDS011;27638;42.184;24.848;2023-05-07T02:11:57;7.28;;;6.03;;
41946;SDS011;27638;42.184;24.848;2023-05-07T02:14:22;9.82;;;6.40;;
41946;SDS011;27638;42.184;24.848;2023-05-07T02:16:48;8.40;;;6.35;;
41946;SDS011;27638;42.184;24.848;2023-05-07T02:19:13;8.63;;;6.45;;
41946;SDS011;27638;42.184;24.848;2023-05-07T02:21:38;12.40;;;8.20;;
41946;SDS011;27638;42.184;24.848;2023-05-07T02:24:04;14.18;;;8.45;;
41946;SDS011;27638;42.184;24.848;2023-05-07T02:26:30;15.48;;;8.40;;
41946;SDS011;27638;42.184;24.848;2023-05-07T02:28:55;11.23;;;7.00;;
41946;SDS011;27638;42.184;24.848;2023-05-07T02:31:20;9.40;;;6.72;;
41946;SDS011;27638;42.184;24.848;2023-05-07T02:33:46;9.68;;;6.90;;
41946;SDS011;27638;42.184;24.848;2023-05-07T02:36:11;10.02;;;6.10;;
41946;SDS011;27638;42.184;24.848;2023-05-07T02:38:37;10.57;;;6.95;;
41946;SDS011;27638;42.184;24.848;2023-05-07T02:41:03;8.18;;;6.78;;
41946;SDS011;27638;42.184;24.848;2023-05-07T02:43:29;8.00;;;6.13;;
41946;SDS011;27638;42.184;24.848;2023-05-07T02:46:04;11.32;;;6.72;;
41946;SDS011;27638;42.184;24.848;2023-05-07T02:48:30;8.73;;;6.65;;
41946;SDS011;27638;42.184;24.848;2023-05-07T02:50:56;10.95;;;7.57;;
41946;SDS011;27638;42.184;24.848;2023-05-07T02:53:21;11.43;;;7.13;;
41946;SDS011;27638;42.184;24.848;2023-05-07T02:55:47;10.20;;;7.85;;
41946;SDS011;27638;42.184;24.848;2023-05-07T02:58:12;8.50;;;7.68;;
41946;SDS011;27638;42.184;24.848;2023-05-07T03:00:38;11.27;;;8.15;;
41946;SDS011;27638;42.184;24.848;2023-05-07T03:03:03;9.93;;;7.95;;
41946;SDS011;27638;42.184;24.848;2023-05-07T03:05:28;13.25;;;8.23;;
41946;SDS011;27638;42.184;24.848;2023-05-07T03:07:54;10.50;;;8.02;;
41946;SDS011;27638;42.184;24.848;2023-05-07T03:10:19;10.38;;;8.70;;
41946;SDS011;27638;42.184;24.848;2023-05-07T03:12:45;10.75;;;9.32;;
41946;SDS011;27638;42.184;24.848;2023-05-07T03:15:10;11.93;;;8.95;;
41946;SDS011;27638;42.184;24.848;2023-05-07T03:17:39;10.65;;;9.15;;
41946;SDS011;27638;42.184;24.848;2023-05-07T03:20:05;12.52;;;8.52;;
41946;SDS011;27638;42.184;24.848;2023-05-07T03:22:30;9.55;;;8.55;;
41946;SDS011;27638;42.184;24.848;2023-05-07T03:24:56;12.05;;;8.35;;
41946;SDS011;27638;42.184;24.848;2023-05-07T03:27:21;11.38;;;8.45;;
41946;SDS011;27638;42.184;24.848;2023-05-07T03:29:47;12.23;;;8.57;;
41946;SDS011;27638;42.184;24.848;2023-05-07T03:32:12;14.02;;;8.90;;
41946;SDS011;27638;42.184;24.848;2023-05-07T03:34:38;10.95;;;8.15;;
41946;SDS011;27638;42.184;24.848;2023-05-07T03:37:03;12.52;;;9.48;;
41946;SDS011;27638;42.184;24.848;2023-05-07T03:39:29;11.98;;;9.05;;
41946;SDS011;27638;42.184;24.848;2023-05-07T03:41:55;13.52;;;9.60;;
41946;SDS011;27638;42.184;24.848;2023-05-07T03:44:20;15.18;;;10.18;;
41946;SDS011;27638;42.184;24.848;2023-05-07T03:46:46;12.15;;;9.25;;
41946;SDS011;27638;42.184;24.848;2023-05-07T03:49:12;11.75;;;9.35;;
41946;SDS011;27638;42.184;24.848;2023-05-07T03:51:37;13.00;;;9.40;;
41946;SDS011;27638;42.184;24.848;2023-05-07T03:54:03;12.63;;;9.55;;
41946;SDS011;27638;42.184;24.848;2023-05-07T03:56:28;9.55;;;8.55;;
41946;SDS011;27638;42.184;24.848;2023-05-07T03:58:54;15.43;;;9.50;;
41946;SDS011;27638;42.184;24.848;2023-05-07T04:01:20;14.77;;;9.23;;
41946;SDS011;27638;42.184;24.848;2023-05-07T04:03:45;13.70;;;8.85;;
41946;SDS011;27638;42.184;24.848;2023-05-07T04:06:10;11.40;;;8.82;;
41946;SDS011;27638;42.184;24.848;2023-05-07T04:08:37;11.48;;;8.70;;
41946;SDS011;27638;42.184;24.848;2023-05-07T04:11:02;12.75;;;9.38;;
41946;SDS011;27638;42.184;24.848;2023-05-07T04:13:29;12.15;;;8.48;;
41946;SDS011;27638;42.184;24.848;2023-05-07T04:15:54;14.25;;;9.35;;
41946;SDS011;27638;42.184;24.848;2023-05-07T04:18:20;13.00;;;9.27;;
41946;SDS011;27638;42.184;24.848;2023-05-07T04:20:47;12.32;;;8.68;;
41946;SDS011;27638;42.184;24.848;2023-05-07T04:23:13;11.35;;;9.57;;
41946;SDS011;27638;42.184;24.848;2023-05-07T04:25:38;14.27;;;9.55;;
41946;SDS011;27638;42.184;24.848;2023-05-07T04:28:04;11.70;;;9.23;;
41946;SDS011;27638;42.184;24.848;2023-05-07T04:30:29;13.85;;;10.10;;
41946;SDS011;27638;42.184;24.848;2023-05-07T04:32:55;11.35;;;9.73;;
41946;SDS011;27638;42.184;24.848;2023-05-07T04:35:21;13.32;;;9.32;;
41946;SDS011;27638;42.184;24.848;2023-05-07T04:37:46;13.13;;;9.30;;
41946;SDS011;27638;42.184;24.848;2023-05-07T04:40:12;12.98;;;9.27;;
41946;SDS011;27638;42.184;24.848;2023-05-07T04:42:38;11.80;;;9.48;;
41946;SDS011;27638;42.184;24.848;2023-05-07T04:45:04;10.40;;;8.07;;
41946;SDS011;27638;42.184;24.848;2023-05-07T04:47:30;10.57;;;8.63;;
41946;SDS011;27638;42.184;24.848;2023-05-07T04:49:55;11.90;;;9.88;;
41946;SDS011;27638;42.184;24.848;2023-05-07T04:52:20;11.40;;;9.07;;
41946;SDS011;27638;42.184;24.848;2023-05-07T04:54:46;9.25;;;8.30;;
41946;SDS011;27638;42.184;24.848;2023-05-07T04:57:11;9.80;;;8.80;;
41946;SDS011;27638;42.184;24.848;2023-05-07T04:59:37;12.48;;;9.70;;
41946;SDS011;27638;42.184;24.848;2023-05-07T05:02:02;11.50;;;8.40;;
41946;SDS011;27638;42.184;24.848;2023-05-07T05:04:29;11.88;;;9.02;;
41946;SDS011;27638;42.184;24.848;2023-05-07T05:06:55;11.38;;;8.50;;
41946;SDS011;27638;42.184;24.848;2023-05-07T05:09:20;12.35;;;8.63;;
41946;SDS011;27638;42.184;24.848;2023-05-07T05:11:46;19.33;;;9.38;;
41946;SDS011;27638;42.184;24.848;2023-05-07T05:14:11;11.57;;;9.63;;
41946;SDS011;27638;42.184;24.848;2023-05-07T05:16:36;9.50;;;8.10;;
41946;SDS011;27638;42.184;24.848;2023-05-07T05:19:02;10.40;;;9.13;;
41946;SDS011;27638;42.184;24.848;2023-05-07T05:21:28;12.32;;;8.85;;
41946;SDS011;27638;42.184;24.848;2023-05-07T05:23:53;12.88;;;9.13;;
41946;SDS011;27638;42.184;24.848;2023-05-07T05:26:19;11.27;;;9.05;;
41946;SDS011;27638;42.184;24.848;2023-05-07T05:28:46;11.60;;;8.82;;
41946;SDS011;27638;42.184;24.848;2023-05-07T05:31:11;11.65;;;8.95;;
41946;SDS011;27638;42.184;24.848;2023-05-07T05:33:37;11.68;;;8.50;;
41946;SDS011;27638;42.184;24.848;2023-05-07T05:36:03;10.30;;;8.40;;
41946;SDS011;27638;42.184;24.848;2023-05-07T05:38:28;10.55;;;8.38;;
41946;SDS011;27638;42.184;24.848;2023-05-07T05:40:54;10.43;;;8.50;;
41946;SDS011;27638;42.184;24.848;2023-05-07T05:43:19;12.00;;;8.05;;
41946;SDS011;27638;42.184;24.848;2023-05-07T05:45:45;12.95;;;8.43;;
41946;SDS011;27638;42.184;24.848;2023-05-07T05:48:10;12.93;;;8.85;;
41946;SDS011;27638;42.184;24.848;2023-05-07T05:50:36;9.55;;;7.75;;
41946;SDS011;27638;42.184;24.848;2023-05-07T05:53:01;11.93;;;8.48;;
41946;SDS011;27638;42.184;24.848;2023-05-07T05:55:27;12.23;;;8.95;;
41946;SDS011;27638;42.184;24.848;2023-05-07T05:57:53;10.07;;;8.30;;
41946;SDS011;27638;42.184;24.848;2023-05-07T06:00:18;9.63;;;7.65;;
41946;SDS011;27638;42.184;24.848;2023-05-07T06:02:47;10.98;;;8.23;;
41946;SDS011;27638;42.184;24.848;2023-05-07T06:05:12;12.20;;;8.05;;
41946;SDS011;27638;42.184;24.848;2023-05-07T06:07:38;11.32;;;7.55;;
41946;SDS011;27638;42.184;24.848;2023-05-07T06:10:03;9.63;;;7.50;;
41946;SDS011;27638;42.184;24.848;2023-05-07T06:12:29;9.82;;;7.35;;
41946;SDS011;27638;42.184;24.848;2023-05-07T06:14:54;8.18;;;6.82;;
41946;SDS011;27638;42.184;24.848;2023-05-07T06:17:20;7.13;;;6.43;;
41946;SDS011;27638;42.184;24.848;2023-05-07T06:19:45;10.15;;;7.28;;
41946;SDS011;27638;42.184;24.848;2023-05-07T06:22:11;10.25;;;6.68;;
41946;SDS011;27638;42.184;24.848;2023-05-07T06:24:36;8.75;;;6.85;;
41946;SDS011;27638;42.184;24.848;2023-05-07T06:27:02;9.00;;;7.03;;
41946;SDS011;27638;42.184;24.848;2023-05-07T06:29:28;7.25;;;5.85;;
41946;SDS011;27638;42.184;24.848;2023-05-07T06:31:56;6.95;;;5.65;;
41946;SDS011;27638;42.184;24.848;2023-05-07T06:34:21;9.05;;;6.22;;
41946;SDS011;27638;42.184;24.848;2023-05-07T06:36:47;9.43;;;6.28;;
41946;SDS011;27638;42.184;24.848;2023-05-07T06:39:12;8.68;;;6.05;;
41946;SDS011;27638;42.184;24.848;2023-05-07T06:41:38;7.50;;;5.63;;
41946;SDS011;27638;42.184;24.848;2023-05-07T06:44:04;8.30;;;6.43;;
41946;SDS011;27638;42.184;24.848;2023-05-07T06:46:29;10.45;;;6.68;;
41946;SDS011;27638;42.184;24.848;2023-05-07T06:48:55;7.95;;;6.53;;
41946;SDS011;27638;42.184;24.848;2023-05-07T06:51:21;10.20;;;6.53;;
41946;SDS011;27638;42.184;24.848;2023-05-07T06:53:47;8.95;;;6.47;;
41946;SDS011;27638;42.184;24.848;2023-05-07T06:56:13;8.57;;;6.53;;
41946;SDS011;27638;42.184;24.848;2023-05-07T06:58:38;7.43;;;6.55;;
41946;SDS011;27638;42.184;24.848;2023-05-07T07:01:03;7.93;;;5.85;;
41946;SDS011;27638;42.184;24.848;2023-05-07T07:03:29;8.48;;;6.65;;
41946;SDS011;27638;42.184;24.848;2023-05-07T07:05:55;6.68;;;5.22;;
41946;SDS011;27638;42.184;24.848;2023-05-07T07:08:21;7.18;;;5.75;;
41946;SDS011;27638;42.184;24.848;2023-05-07T07:10:47;8.63;;;7.18;;
41946;SDS011;27638;42.184;24.848;2023-05-07T07:13:13;6.93;;;5.80;;
41946;SDS011;27638;42.184;24.848;2023-05-07T07:15:38;6.57;;;5.82;;
41946;SDS011;27638;42.184;24.848;2023-05-07T07:18:05;9.60;;;6.70;;
41946;SDS011;27638;42.184;24.848;2023-05-07T07:20:31;10.32;;;6.60;;
41946;SDS011;27638;42.184;24.848;2023-05-07T07:22:56;9.52;;;6.75;;
41946;SDS011;27638;42.184;24.848;2023-05-07T07:25:22;7.78;;;7.03;;
41946;SDS011;27638;42.184;24.848;2023-05-07T07:27:47;8.43;;;6.40;;
41946;SDS011;27638;42.184;24.848;2023-05-07T07:30:12;8.48;;;6.82;;
41946;SDS011;27638;42.184;24.848;2023-05-07T07:32:38;8.90;;;6.75;;
41946;SDS011;27638;42.184;24.848;2023-05-07T07:35:04;9.35;;;7.28;;
41946;SDS011;27638;42.184;24.848;2023-05-07T07:37:29;9.88;;;7.32;;
41946;SDS011;27638;42.184;24.848;2023-05-07T07:39:55;7.93;;;6.85;;
41946;SDS011;27638;42.184;24.848;2023-05-07T07:42:20;9.45;;;7.20;;
41946;SDS011;27638;42.184;24.848;2023-05-07T07:44:46;9.35;;;6.80;;
41946;SDS011;27638;42.184;24.848;2023-05-07T07:47:11;7.68;;;6.65;;
41946;SDS011;27638;42.184;24.848;2023-05-07T07:49:37;8.23;;;6.32;;
41946;SDS011;27638;42.184;24.848;2023-05-07T07:52:02;8.05;;;6.32;;
41946;SDS011;27638;42.184;24.848;2023-05-07T07:54:28;8.35;;;6.70;;
41946;SDS011;27638;42.184;24.848;2023-05-07T07:56:54;7.90;;;6.68;;
41946;SDS011;27638;42.184;24.848;2023-05-07T07:59:19;7.60;;;6.57;;
41946;SDS011;27638;42.184;24.848;2023-05-07T08:01:45;8.02;;;6.13;;
41946;SDS011;27638;42.184;24.848;2023-05-07T08:04:11;10.13;;;5.80;;
41946;SDS011;27638;42.184;24.848;2023-05-07T08:06:36;6.60;;;5.90;;
41946;SDS011;27638;42.184;24.848;2023-05-07T08:09:02;6.32;;;4.65;;
41946;SDS011;27638;42.184;24.848;2023-05-07T08:11:28;6.80;;;4.82;;
41946;SDS011;27638;42.184;24.848;2023-05-07T08:13:53;4.72;;;4.30;;
41946;SDS011;27638;42.184;24.848;2023-05-07T08:16:19;6.10;;;4.72;;
41946;SDS011;27638;42.184;24.848;2023-05-07T08:18:45;5.43;;;4.15;;
41946;SDS011;27638;42.184;24.848;2023-05-07T08:21:10;5.68;;;3.65;;
41946;SDS011;27638;42.184;24.848;2023-05-07T08:23:36;10.85;;;3.70;;
41946;SDS011;27638;42.184;24.848;2023-05-07T08:26:01;4.13;;;3.72;;
41946;SDS011;27638;42.184;24.848;2023-05-07T08:28:27;6.30;;;3.53;;
41946;SDS011;27638;42.184;24.848;2023-05-07T08:30:52;5.38;;;4.00;;
41946;SDS011;27638;42.184;24.848;2023-05-07T08:33:18;5.85;;;3.75;;
41946;SDS011;27638;42.184;24.848;2023-05-07T08:35:43;3.72;;;3.20;;
41946;SDS011;27638;42.184;24.848;2023-05-07T08:38:09;5.10;;;3.33;;
41946;SDS011;27638;42.184;24.848;2023-05-07T08:40:36;4.00;;;3.28;;
41946;SDS011;27638;42.184;24.848;2023-05-07T08:43:03;4.53;;;3.53;;
41946;SDS011;27638;42.184;24.848;2023-05-07T08:45:30;4.80;;;2.95;;
41946;SDS011;27638;42.184;24.848;2023-05-07T08:47:58;4.15;;;3.05;;
41946;SDS011;27638;42.184;24.848;2023-05-07T08:50:26;5.00;;;3.92;;
41946;SDS011;27638;42.184;24.848;2023-05-07T08:52:52;4.25;;;3.85;;
41946;SDS011;27638;42.184;24.848;2023-05-07T08:55:18;5.07;;;3.78;;
41946;SDS011;27638;42.184;24.848;2023-05-07T08:57:44;4.57;;;3.50;;
41946;SDS011;27638;42.184;24.848;2023-05-07T09:00:09;3.17;;;2.67;;
41946;SDS011;27638;42.184;24.848;2023-05-07T09:02:35;6.40;;;3.75;;
41946;SDS011;27638;42.184;24.848;2023-05-07T09:05:02;3.83;;;3.30;;
41946;SDS011;27638;42.184;24.848;2023-05-07T09:07:28;4.25;;;3.28;;
41946;SDS011;27638;42.184;24.848;2023-05-07T09:09:53;3.95;;;3.30;;
41946;SDS011;27638;42.184;24.848;2023-05-07T09:12:20;5.43;;;3.60;;
41946;SDS011;27638;42.184;24.848;2023-05-07T09:14:46;6.18;;;3.22;;
41946;SDS011;27638;42.184;24.848;2023-05-07T09:17:12;3.47;;;3.17;;
41946;SDS011;27638;42.184;24.848;2023-05-07T09:19:38;4.47;;;3.35;;
41946;SDS011;27638;42.184;24.848;2023-05-07T09:22:04;4.53;;;3.50;;
41946;SDS011;27638;42.184;24.848;2023-05-07T09:24:32;4.35;;;3.78;;
41946;SDS011;27638;42.184;24.848;2023-05-07T09:27:03;4.28;;;3.78;;
41946;SDS011;27638;42.184;24.848;2023-05-07T09:29:29;4.80;;;3.88;;
41946;SDS011;27638;42.184;24.848;2023-05-07T09:32:00;5.15;;;4.03;;
41946;SDS011;27638;42.184;24.848;2023-05-07T09:34:26;4.55;;;4.15;;
41946;SDS011;27638;42.184;24.848;2023-05-07T09:36:51;3.92;;;3.63;;
41946;SDS011;27638;42.184;24.848;2023-05-07T09:39:18;4.18;;;3.30;;
41946;SDS011;27638;42.184;24.848;2023-05-07T09:41:45;4.90;;;3.35;;
41946;SDS011;27638;42.184;24.848;2023-05-07T09:44:11;5.63;;;3.40;;
41946;SDS011;27638;42.184;24.848;2023-05-07T09:46:38;8.50;;;3.30;;
41946;SDS011;27638;42.184;24.848;2023-05-07T09:49:07;4.22;;;3.58;;
41946;SDS011;27638;42.184;24.848;2023-05-07T09:54:15;6.55;;;4.18;;
41946;SDS011;27638;42.184;24.848;2023-05-07T09:56:40;6.30;;;3.83;;
41946;SDS011;27638;42.184;24.848;2023-05-07T09:59:08;5.30;;;4.00;;
41946;SDS011;27638;42.184;24.848;2023-05-07T10:01:37;3.95;;;3.47;;
41946;SDS011;27638;42.184;24.848;2023-05-07T10:04:05;3.65;;;3.42;;
41946;SDS011;27638;42.184;24.848;2023-05-07T10:06:33;6.85;;;3.33;;
41946;SDS011;27638;42.184;24.848;2023-05-07T10:08:59;5.45;;;3.60;;
41946;SDS011;27638;42.184;24.848;2023-05-07T10:11:25;3.47;;;3.17;;
41946;SDS011;27638;42.184;24.848;2023-05-07T10:13:52;5.30;;;3.72;;
41946;SDS011;27638;42.184;24.848;2023-05-07T10:16:17;4.03;;;3.30;;
41946;SDS011;27638;42.184;24.848;2023-05-07T10:18:43;4.25;;;3.22;;
41946;SDS011;27638;42.184;24.848;2023-05-07T10:21:11;5.32;;;4.00;;
41946;SDS011;27638;42.184;24.848;2023-05-07T10:23:44;5.78;;;3.55;;
41946;SDS011;27638;42.184;24.848;2023-05-07T10:26:11;4.97;;;3.70;;
41946;SDS011;27638;42.184;24.848;2023-05-07T10:28:38;5.00;;;3.75;;
41946;SDS011;27638;42.184;24.848;2023-05-07T10:33:35;5.00;;;3.30;;
41946;SDS011;27638;42.184;24.848;2023-05-07T10:36:02;3.40;;;3.03;;
41946;SDS011;27638;42.184;24.848;2023-05-07T10:38:29;5.10;;;3.65;;
41946;SDS011;27638;42.184;24.848;2023-05-07T10:40:55;4.15;;;3.45;;
41946;SDS011;27638;42.184;24.848;2023-05-07T10:43:20;3.42;;;3.08;;
41946;SDS011;27638;42.184;24.848;2023-05-07T10:51:31;4.43;;;3.63;;
41946;SDS011;27638;42.184;24.848;2023-05-07T10:56:35;3.53;;;3.10;;
41946;SDS011;27638;42.184;24.848;2023-05-07T11:02:00;3.83;;;2.88;;
41946;SDS011;27638;42.184;24.848;2023-05-07T11:04:31;3.63;;;3.30;;
41946;SDS011;27638;42.184;24.848;2023-05-07T11:15:04;4.40;;;2.83;;
41946;SDS011;27638;42.184;24.848;2023-05-07T11:17:31;5.38;;;3.22;;
41946;SDS011;27638;42.184;24.848;2023-05-07T11:19:59;3.50;;;2.75;;
41946;SDS011;27638;42.184;24.848;2023-05-07T11:25:01;4.05;;;2.90;;
41946;SDS011;27638;42.184;24.848;2023-05-07T11:27:28;3.50;;;3.20;;
41946;SDS011;27638;42.184;24.848;2023-05-07T11:29:54;3.50;;;3.10;;
41946;SDS011;27638;42.184;24.848;2023-05-07T11:32:27;5.30;;;3.15;;
41946;SDS011;27638;42.184;24.848;2023-05-07T11:34:55;5.65;;;3.42;;
41946;SDS011;27638;42.184;24.848;2023-05-07T11:37:22;4.07;;;2.80;;
41946;SDS011;27638;42.184;24.848;2023-05-07T11:39:48;2.90;;;2.60;;
41946;SDS011;27638;42.184;24.848;2023-05-07T11:42:30;4.60;;;2.80;;
41946;SDS011;27638;42.184;24.848;2023-05-07T11:44:57;4.07;;;2.90;;
41946;SDS011;27638;42.184;24.848;2023-05-07T11:47:23;3.35;;;3.05;;
41946;SDS011;27638;42.184;24.848;2023-05-07T11:49:50;5.38;;;3.15;;
41946;SDS011;27638;42.184;24.848;2023-05-07T11:52:17;3.88;;;3.25;;
41946;SDS011;27638;42.184;24.848;2023-05-07T11:55:04;4.53;;;2.97;;
41946;SDS011;27638;42.184;24.848;2023-05-07T11:57:29;3.58;;;3.00;;
41946;SDS011;27638;42.184;24.848;2023-05-07T11:59:55;6.35;;;3.25;;
41946;SDS011;27638;42.184;24.848;2023-05-07T12:02:21;5.43;;;2.83;;
41946;SDS011;27638;42.184;24.848;2023-05-07T12:04:47;6.22;;;3.00;;
41946;SDS011;27638;42.184;24.848;2023-05-07T12:07:15;4.30;;;2.65;;
41946;SDS011;27638;42.184;24.848;2023-05-07T12:09:41;3.33;;;2.63;;
41946;SDS011;27638;42.184;24.848;2023-05-07T12:12:08;3.50;;;2.92;;
41946;SDS011;27638;42.184;24.848;2023-05-07T12:14:40;5.13;;;2.80;;
41946;SDS011;27638;42.184;24.848;2023-05-07T12:17:07;4.95;;;2.80;;
41946;SDS011;27638;42.184;24.848;2023-05-07T12:19:34;4.28;;;2.47;;
41946;SDS011;27638;42.184;24.848;2023-05-07T12:22:01;4.05;;;2.90;;
41946;SDS011;27638;42.184;24.848;2023-05-07T12:24:28;4.47;;;3.10;;
41946;SDS011;27638;42.184;24.848;2023-05-07T12:26:53;5.53;;;2.75;;
41946;SDS011;27638;42.184;24.848;2023-05-07T12:29:22;4.38;;;2.80;;
41946;SDS011;27638;42.184;24.848;2023-05-07T12:31:49;3.67;;;2.80;;
41946;SDS011;27638;42.184;24.848;2023-05-07T12:34:15;3.78;;;2.78;;
41946;SDS011;27638;42.184;24.848;2023-05-07T12:36:41;2.72;;;2.50;;
41946;SDS011;27638;42.184;24.848;2023-05-07T12:39:07;3.38;;;2.70;;
41946;SDS011;27638;42.184;24.848;2023-05-07T12:41:54;2.47;;;2.28;;
41946;SDS011;27638;42.184;24.848;2023-05-07T12:44:24;2.67;;;2.40;;
41946;SDS011;27638;42.184;24.848;2023-05-07T12:46:53;3.35;;;2.63;;
41946;SDS011;27638;42.184;24.848;2023-05-07T12:49:19;3.42;;;2.42;;
41946;SDS011;27638;42.184;24.848;2023-05-07T12:51:46;3.13;;;2.28;;
41946;SDS011;27638;42.184;24.848;2023-05-07T12:54:13;3.65;;;2.08;;
41946;SDS011;27638;42.184;24.848;2023-05-07T12:56:39;2.42;;;2.17;;
41946;SDS011;27638;42.184;24.848;2023-05-07T12:59:05;3.10;;;2.25;;
41946;SDS011;27638;42.184;24.848;2023-05-07T13:01:31;3.42;;;2.40;;
41946;SDS011;27638;42.184;24.848;2023-05-07T13:04:03;2.63;;;2.20;;
41946;SDS011;27638;42.184;24.848;2023-05-07T13:06:29;2.50;;;2.10;;
41946;SDS011;27638;42.184;24.848;2023-05-07T13:08:56;2.25;;;1.80;;
41946;SDS011;27638;42.184;24.848;2023-05-07T13:11:21;3.38;;;2.15;;
41946;SDS011;27638;42.184;24.848;2023-05-07T13:13:47;4.50;;;2.35;;
41946;SDS011;27638;42.184;24.848;2023-05-07T13:16:13;3.10;;;2.22;;
41946;SDS011;27638;42.184;24.848;2023-05-07T13:18:38;3.22;;;2.05;;
41946;SDS011;27638;42.184;24.848;2023-05-07T13:21:05;3.25;;;1.90;;
41946;SDS011;27638;42.184;24.848;2023-05-07T13:23:30;3.25;;;2.05;;
41946;SDS011;27638;42.184;24.848;2023-05-07T13:25:56;2.35;;;2.15;;
41946;SDS011;27638;42.184;24.848;2023-05-07T13:28:22;3.00;;;2.20;;
41946;SDS011;27638;42.184;24.848;2023-05-07T13:30:49;2.22;;;2.03;;
41946;SDS011;27638;42.184;24.848;2023-05-07T13:33:16;2.70;;;2.00;;
41946;SDS011;27638;42.184;24.848;2023-05-07T13:35:43;2.60;;;1.77;;
41946;SDS011;27638;42.184;24.848;2023-05-07T13:38:09;2.75;;;2.20;;
41946;SDS011;27638;42.184;24.848;2023-05-07T13:40:34;3.22;;;2.28;;
41946;SDS011;27638;42.184;24.848;2023-05-07T13:43:00;2.25;;;1.88;;
41946;SDS011;27638;42.184;24.848;2023-05-07T13:45:29;3.22;;;2.40;;
41946;SDS011;27638;42.184;24.848;2023-05-07T13:47:55;3.35;;;2.22;;
41946;SDS011;27638;42.184;24.848;2023-05-07T13:50:22;3.35;;;2.65;;
41946;SDS011;27638;42.184;24.848;2023-05-07T13:52:47;2.17;;;1.98;;
41946;SDS011;27638;42.184;24.848;2023-05-07T13:55:16;3.22;;;1.77;;
41946;SDS011;27638;42.184;24.848;2023-05-07T13:57:46;3.33;;;1.88;;
41946;SDS011;27638;42.184;24.848;2023-05-07T14:00:12;2.95;;;2.22;;
41946;SDS011;27638;42.184;24.848;2023-05-07T14:02:39;2.90;;;2.15;;
41946;SDS011;27638;42.184;24.848;2023-05-07T14:05:04;4.15;;;2.78;;
41946;SDS011;27638;42.184;24.848;2023-05-07T14:07:30;3.40;;;2.58;;
41946;SDS011;27638;42.184;24.848;2023-05-07T14:09:56;5.82;;;2.83;;
41946;SDS011;27638;42.184;24.848;2023-05-07T14:12:22;3.72;;;2.40;;
41946;SDS011;27638;42.184;24.848;2023-05-07T14:14:47;3.85;;;2.28;;
41946;SDS011;27638;42.184;24.848;2023-05-07T14:17:15;3.00;;;2.20;;
41946;SDS011;27638;42.184;24.848;2023-05-07T14:19:42;3.33;;;2.90;;
41946;SDS011;27638;42.184;24.848;2023-05-07T14:22:07;2.75;;;2.33;;
41946;SDS011;27638;42.184;24.848;2023-05-07T14:24:33;3.88;;;2.63;;
41946;SDS011;27638;42.184;24.848;2023-05-07T14:26:58;4.28;;;3.10;;
41946;SDS011;27638;42.184;24.848;2023-05-07T14:29:24;3.92;;;2.88;;
41946;SDS011;27638;42.184;24.848;2023-05-07T14:31:49;2.55;;;2.28;;
41946;SDS011;27638;42.184;24.848;2023-05-07T14:34:15;3.28;;;2.60;;
41946;SDS011;27638;42.184;24.848;2023-05-07T14:36:40;3.72;;;3.00;;
41946;SDS011;27638;42.184;24.848;2023-05-07T14:39:06;4.00;;;3.03;;
41946;SDS011;27638;42.184;24.848;2023-05-07T14:41:31;4.90;;;3.38;;
41946;SDS011;27638;42.184;24.848;2023-05-07T14:43:58;2.67;;;2.47;;
41946;SDS011;27638;42.184;24.848;2023-05-07T14:46:24;3.42;;;2.83;;
41946;SDS011;27638;42.184;24.848;2023-05-07T14:48:49;4.00;;;2.72;;
41946;SDS011;27638;42.184;24.848;2023-05-07T14:51:15;3.97;;;3.10;;
41946;SDS011;27638;42.184;24.848;2023-05-07T14:53:41;4.47;;;2.65;;